Sun Valley, ID

3:42 AM MST on December 22, 2014 (GMT -0700)
RAWS COPPER BASIN ID US | Change Station
CLOSE
Current Station
Personal Weather Station
Location: Mackay, ID
Elevation: 7853 ft
Nearby Weather Stations
Active Advisory: Winter Storm Warning, Avalanche Warning Active Notice: Record Report

Elev 7853 ft 43.81 °N, 113.85 °W | Updated 52 minutes ago

Mostly Cloudy
Mostly Cloudy
22 °F
Feels Like 22 °F
N
2
Wind Variable Wind from West
Gusts 11.0 mph

Today
High -- | Low -- °F
--% Chance of Precip.
Yesterday
High -- | Low -- °F
Precip. -- in
8:08 AM 5:03 PM
New Moon, 0% visible
Pressure 29.92 in
Visibility -9999.0 miles
Clouds
Windchill 22 °F
Dew Point 18 °F
Humidity 83%
Rainfall -999.00 in
Snow Depth Not available.
UV Not available.
Pollen .10 out of 12
Air Quality Not available.
Flu Activity Not available.
METAR KSNT 220951Z AUTO 04003KT M02/M04 A2996 RMK AO1 SLP131 T10171044

More Conditions Fewer Conditions

Pressure 29.92 in
Visibility -9999.0 miles
Clouds
Windchill 22 °F
Dew Point 18 °F
Humidity 83%
Rainfall -999.00 in
Snow Depth Not available.
UV Not available.
Pollen .10 out of 12
Air Quality Not available.
Flu Activity Not available.
METAR KSNT 220951Z AUTO 04003KT M02/M04 A2996 RMK AO1 SLP131 T10171044

More Conditions Fewer Conditions

10-Day Weather Forecast

Almanac

Astronomy

Dec. 22, 2014 Rise Set
Actual Time
Civil Twilight
Nautical Twilight
Astronomical Twilight
Moon
Length of Visible Light
Length of Day
Tomorrow will be .
, % of the Moon is Illuminated

Today's Extremes

State Highs State Lows

Community

WunderPhotos

Upload Photos

1,779,583 photos uploaded!

WunderBlogs® & News

Nearby

Air Quality

  Air Quality AQ Index Pollutant
Not available.

Snow Depth

Station Depth Elevation

Earthquake Activity

City Distance Mag. Time & Date
Minimum magnitude displayed is 2.5.

Coastal Water Temperatures

Place Temperature

Nearby Weather Stations